Time;durP1;ratioP1;P1;durP2;ratioP2;P2;SDS_P1;SDS_P2;PMS_P1;PMS_P2;Temp;Humidity;BMP_temperature;BMP_pressure;BME280_temperature;BME280_humidity;BME280_pressure;Samples;Min_cycle;Max_cycle;Signal;HPM_P1;HPM_P2
2022/05/15 00:02:59;;;;;;;0.63;0.63;;;9.60;1.40;;;10.80;100.00;95660.83;648078;216;42706;-74
2022/05/15 00:05:41;;;;;;;1.20;1.20;;;9.60;1.40;;;10.78;100.00;95657.73;650632;216;44729;-74
2022/05/15 00:08:23;;;;;;;0.60;0.60;;;9.70;1.40;;;10.74;100.00;95658.95;649201;212;31652;-73
2022/05/15 00:11:04;;;;;;;0.90;0.90;;;9.60;1.40;;;10.72;100.00;95656.61;650146;216;42246;-73
2022/05/15 00:13:46;;;;;;;0.90;0.80;;;9.50;1.40;;;10.67;100.00;95654.09;622862;226;32398;-73
2022/05/15 00:16:27;;;;;;;2.23;0.70;;;9.40;1.40;;;10.53;100.00;95655.46;646775;216;31736;-74
2022/05/15 00:19:09;;;;;;;1.97;1.17;;;9.30;1.40;;;10.55;100.00;95655.55;646203;216;31559;-73
2022/05/15 00:24:28;;;;;;;1.40;0.90;;;9.30;1.40;;;10.57;100.00;95651.92;648321;212;32189;-73
2022/05/15 00:27:10;;;;;;;1.00;0.80;;;9.50;1.40;;;10.59;100.00;95652.97;650762;216;32150;-73
2022/05/15 00:29:51;;;;;;;1.35;1.05;;;9.50;1.40;;;10.58;100.00;95648.31;647521;216;31663;-73
2022/05/15 00:32:33;;;;;;;1.07;0.97;;;9.50;1.40;;;10.61;100.00;95649.75;645978;212;31973;-73
2022/05/15 00:35:53;;;;;;;1.00;0.77;;;9.40;1.40;;;10.51;100.00;95646.67;646378;216;31503;-73
2022/05/15 00:38:33;;;;;;;1.20;1.10;;;9.30;1.40;;;10.38;100.00;95649.11;644500;216;32129;-73
2022/05/15 00:41:15;;;;;;;0.50;0.50;;;9.20;1.40;;;10.32;100.00;95645.46;647709;212;32096;-73
2022/05/15 00:43:56;;;;;;;0.90;0.60;;;9.10;1.40;;;10.36;100.00;95643.50;619624;226;32551;-73
2022/05/15 00:46:38;;;;;;;1.47;0.77;;;9.20;1.40;;;10.24;100.00;95645.38;647683;216;31911;-73
2022/05/15 00:49:21;;;;;;;1.00;1.00;;;9.10;1.40;;;10.14;100.00;95639.05;647453;216;32482;-73
2022/05/15 00:52:04;;;;;;;0.80;0.80;;;9.00;1.40;;;10.14;100.00;95637.05;645462;216;31642;-73
2022/05/15 00:54:50;;;;;;;1.10;1.00;;;9.00;1.40;;;10.13;100.00;95638.64;650342;212;31546;-73
2022/05/15 00:57:36;;;;;;;0.90;0.80;;;8.90;1.40;;;10.12;100.00;95637.73;650627;216;31499;-73
2022/05/15 01:00:18;;;;;;;1.20;0.90;;;8.90;1.40;;;10.07;100.00;95639.28;648847;216;31518;-72
2022/05/15 01:03:09;;;;;;;1.47;1.13;;;8.80;1.40;;;10.03;100.00;95637.42;645091;216;31465;-73
2022/05/15 01:05:51;;;;;;;0.90;0.90;;;8.80;1.40;;;10.08;100.00;95636.51;644087;216;31502;-73
2022/05/15 01:08:35;;;;;;;0.80;0.80;;;8.90;1.40;;;10.13;100.00;95633.81;648681;212;32038;-73
2022/05/15 01:11:18;;;;;;;0.90;0.70;;;9.10;1.40;;;10.13;100.00;95634.89;646250;212;31524;-73
2022/05/15 01:13:58;;;;;;;0.90;0.90;;;9.10;1.40;;;10.14;100.00;95632.50;653035;216;31651;-73
2022/05/15 01:16:43;;;;;;;1.10;0.80;;;9.10;1.40;;;10.19;100.00;95633.55;648765;216;31618;-73
2022/05/15 01:19:31;;;;;;;0.97;0.67;;;9.20;1.40;;;10.16;100.00;95635.48;648744;216;31603;-73
2022/05/15 01:22:15;;;;;;;1.40;1.23;;;9.10;1.40;;;10.11;100.00;95633.03;646136;212;42131;-73
2022/05/15 01:24:57;;;;;;;0.65;0.50;;;9.10;1.40;;;10.16;100.00;95633.39;649268;212;31524;-73
2022/05/15 01:27:39;;;;;;;1.10;0.60;;;9.10;1.40;;;10.17;100.00;95639.98;644670;216;31684;-73
2022/05/15 01:30:21;;;;;;;0.70;0.60;;;8.90;1.40;;;10.05;100.00;95637.53;649465;216;31487;-73
2022/05/15 01:35:51;;;;;;;1.20;0.70;;;8.70;1.40;;;9.83;100.00;95637.98;647367;216;31557;-73
2022/05/15 01:38:32;;;;;;;2.30;0.80;;;8.60;1.40;;;9.78;100.00;95631.95;643849;216;31563;-74
2022/05/15 01:41:14;;;;;;;3.00;0.80;;;8.60;1.40;;;9.60;100.00;95633.13;646077;216;31497;-74
2022/05/15 01:43:56;;;;;;;0.70;0.70;;;8.50;1.40;;;9.56;100.00;95631.78;623138;226;31844;-73
2022/05/15 01:46:40;;;;;;;0.90;0.90;;;8.40;1.40;;;9.51;100.00;95627.63;649181;216;31574;-74
2022/05/15 01:49:22;;;;;;;0.57;0.57;;;8.30;1.40;;;9.47;100.00;95621.59;643380;216;31531;-74
2022/05/15 01:52:05;;;;;;;1.10;0.70;;;8.30;1.40;;;9.47;100.00;95622.25;647240;216;31549;-73
2022/05/15 01:54:47;;;;;;;1.60;1.50;;;8.20;1.40;;;9.53;100.00;95626.52;648060;216;31518;-74
2022/05/15 02:00:03;;;;;;;1.60;0.80;;;8.20;1.40;;;9.46;100.00;95627.51;649815;216;31490;-73
2022/05/15 02:02:44;;;;;;;0.97;0.87;;;8.20;1.40;;;9.37;100.00;95623.70;651766;216;31585;-73
2022/05/15 02:05:29;;;;;;;2.00;1.17;;;8.10;1.40;;;9.20;100.00;95618.76;644045;216;31481;-74
2022/05/15 02:08:11;;;;;;;0.55;0.55;;;7.90;1.40;;;9.30;100.00;95617.78;643283;216;31848;-73
2022/05/15 02:10:56;;;;;;;1.23;0.60;;;8.00;1.40;;;9.20;100.00;95616.53;647808;216;31516;-73
2022/05/15 02:13:37;;;;;;;1.90;0.70;;;7.90;1.40;;;9.08;100.00;95615.75;646283;216;31529;-73
2022/05/15 02:16:22;;;;;;;0.50;0.50;;;7.80;1.40;;;9.02;100.00;95615.51;651696;216;31580;-73
2022/05/15 02:19:04;;;;;;;1.80;0.90;;;7.80;1.40;;;8.97;100.00;95613.86;642391;215;31537;-74
2022/05/15 02:21:48;;;;;;;1.10;1.00;;;7.80;1.40;;;9.03;100.00;95611.98;645949;212;31552;-73
2022/05/15 02:24:31;;;;;;;1.00;0.80;;;7.80;1.40;;;9.20;100.00;95609.08;649407;216;31544;-73
2022/05/15 02:27:12;;;;;;;1.70;0.90;;;7.90;1.40;;;9.25;100.00;95610.68;641365;216;31520;-73
2022/05/15 02:29:53;;;;;;;1.10;0.80;;;7.90;1.40;;;9.16;100.00;95606.66;650458;212;31615;-73
2022/05/15 02:32:35;;;;;;;0.70;0.60;;;7.90;1.40;;;9.09;100.00;95608.02;646795;216;31510;-74
2022/05/15 02:35:51;;;;;;;0.90;0.60;;;7.80;1.40;;;8.89;100.00;95606.73;644753;216;31519;-73
2022/05/15 02:38:38;;;;;;;0.70;0.70;;;7.70;1.40;;;8.87;100.00;95598.11;645229;216;31557;-73
2022/05/15 02:41:19;;;;;;;0.70;0.70;;;7.80;1.40;;;8.97;100.00;95599.74;652196;216;31571;-73
2022/05/15 02:44:01;;;;;;;0.83;0.40;;;7.80;1.40;;;8.98;100.00;95599.07;620084;226;31888;-73
2022/05/15 02:46:46;;;;;;;0.90;0.70;;;7.90;1.40;;;8.93;100.00;95598.70;647263;212;32137;-72
2022/05/15 02:52:15;;;;;;;1.50;0.70;;;7.90;1.40;;;8.90;100.00;95594.39;649306;216;31570;-73
2022/05/15 02:54:56;;;;;;;0.80;0.60;;;7.90;1.40;;;8.83;100.00;95593.19;646202;212;31509;-73
2022/05/15 02:57:39;;;;;;;0.50;0.30;;;7.70;1.40;;;8.85;100.00;95590.29;650938;216;31498;-73
2022/05/15 03:00:20;;;;;;;1.00;0.90;;;7.80;1.40;;;8.82;100.00;95590.87;618989;226;31840;-73
2022/05/15 03:03:02;;;;;;;1.40;1.10;;;7.70;1.40;;;8.69;100.00;95591.65;647387;212;31718;-73
2022/05/15 03:05:43;;;;;;;0.60;0.50;;;7.60;1.40;;;8.78;100.00;95594.17;650124;216;31518;-73
2022/05/15 03:08:25;;;;;;;0.60;0.60;;;7.80;1.40;;;8.72;100.00;95596.97;641131;216;32021;-73
2022/05/15 03:13:44;;;;;;;0.90;0.50;;;7.60;1.40;;;8.75;100.00;95598.09;648906;213;31522;-73
2022/05/15 03:16:28;;;;;;;0.70;0.50;;;7.70;1.40;;;8.80;100.00;95599.60;645066;216;31499;-73
2022/05/15 03:19:08;;;;;;;0.97;0.90;;;7.80;1.40;;;8.78;100.00;95602.98;647302;212;31579;-73
2022/05/15 03:21:49;;;;;;;0.50;0.43;;;7.70;1.40;;;8.79;100.00;95598.80;618371;222;31896;-73
2022/05/15 03:24:34;;;;;;;0.80;0.63;;;7.60;1.40;;;8.69;100.00;95601.77;651935;216;31549;-73
2022/05/15 03:27:16;;;;;;;0.70;0.50;;;7.50;1.40;;;8.67;100.00;95600.33;647839;216;31501;-73
2022/05/15 03:29:57;;;;;;;0.70;0.67;;;7.60;1.40;;;8.60;100.00;95603.32;650353;216;31548;-73
2022/05/15 03:32:39;;;;;;;0.80;0.80;;;7.50;1.40;;;8.54;100.00;95604.02;648493;216;31556;-73
2022/05/15 03:35:53;;;;;;;0.60;0.60;;;7.40;1.40;;;8.44;100.00;95599.21;647486;216;32037;-73
2022/05/15 03:38:38;;;;;;;0.80;0.60;;;7.40;1.40;;;8.45;100.00;95598.28;648824;216;31485;-74
2022/05/15 03:41:20;;;;;;;1.45;1.10;;;7.30;1.40;;;8.51;100.00;95600.27;649924;216;31775;-73
2022/05/15 03:44:01;;;;;;;1.00;0.90;;;7.40;1.40;;;8.53;100.00;95602.52;648856;216;31580;-73
2022/05/15 03:46:43;;;;;;;0.90;0.60;;;7.40;1.40;;;8.64;100.00;95600.69;650300;212;31530;-73
2022/05/15 03:49:25;;;;;;;0.90;0.60;;;7.60;1.40;;;8.78;100.00;95599.84;647564;216;31566;-73
2022/05/15 03:52:07;;;;;;;0.70;0.70;;;7.70;1.40;;;8.84;100.00;95601.39;647692;212;31689;-73
2022/05/15 03:54:48;;;;;;;0.50;0.43;;;7.70;1.40;;;8.90;100.00;95602.72;648619;216;31525;-73
2022/05/15 03:57:30;;;;;;;0.77;0.73;;;7.70;1.40;;;8.78;100.00;95602.10;649592;216;31485;-73
2022/05/15 04:00:17;;;;;;;0.80;0.70;;;7.60;1.40;;;8.69;100.00;95600.56;646566;216;31585;-73
2022/05/15 04:02:59;;;;;;;0.50;0.45;;;7.60;1.40;;;8.66;100.00;95604.17;648448;216;31877;-73
2022/05/15 04:05:40;;;;;;;1.63;0.80;;;7.50;1.40;;;8.73;100.00;95601.39;648574;212;32014;-73
2022/05/15 04:08:27;;;;;;;0.77;0.60;;;7.60;1.40;;;8.74;100.00;95598.16;642037;216;31785;-73
2022/05/15 04:11:06;;;;;;;1.10;1.10;;;7.60;1.40;;;8.88;100.00;95601.81;645497;216;31536;-72
2022/05/15 04:13:48;;;;;;;0.53;0.50;;;7.60;1.40;;;8.92;100.00;95605.61;648554;212;31497;-72
2022/05/15 04:16:33;;;;;;;1.00;0.85;;;7.60;1.40;;;8.89;100.00;95604.89;647350;212;31492;-73
2022/05/15 04:19:15;;;;;;;1.60;0.80;;;7.60;1.40;;;8.95;100.00;95604.73;648806;216;31540;-73
2022/05/15 04:22:02;;;;;;;2.10;1.00;;;7.80;1.40;;;9.00;100.00;95604.23;618697;222;31855;-73
2022/05/15 04:24:38;;;;;;;0.67;0.40;;;7.80;1.40;;;9.08;100.00;95603.05;647267;216;31850;-73
2022/05/15 04:27:20;;;;;;;0.70;0.55;;;7.90;1.40;;;9.11;100.00;95599.17;619666;226;31910;-73
2022/05/15 04:30:02;;;;;;;0.50;0.50;;;8.00;1.40;;;9.17;100.00;95606.03;646023;216;31465;-73
2022/05/15 04:32:44;;;;;;;1.57;1.40;;;8.10;1.40;;;9.34;100.00;95606.05;650472;216;31517;-73
2022/05/15 04:35:51;;;;;;;0.70;0.60;;;8.40;1.40;;;9.50;100.00;95607.28;649177;212;31554;-73
2022/05/15 04:38:33;;;;;;;0.70;0.70;;;8.70;1.40;;;9.59;100.00;95602.88;645580;212;31601;-73
2022/05/15 04:43:52;;;;;;;0.70;0.50;;;8.80;1.40;;;9.84;100.00;95603.37;646885;216;31534;-73
2022/05/15 04:46:36;;;;;;;1.50;1.13;;;8.90;1.40;;;9.99;100.00;95603.58;647196;216;31634;-73
2022/05/15 04:49:18;;;;;;;1.07;0.83;;;9.00;1.40;;;10.16;100.00;95603.97;645543;216;31788;-73
2022/05/15 04:52:00;;;;;;;1.45;0.50;;;9.20;1.40;;;10.28;100.00;95605.22;647704;216;31918;-73
2022/05/15 04:54:44;;;;;;;1.20;1.08;;;9.30;1.40;;;10.37;100.00;95611.02;649681;216;31599;-80
2022/05/15 04:57:31;;;;;;;0.80;0.67;;;9.30;1.40;;;10.38;100.00;95613.27;647137;216;31493;-73
2022/05/15 05:00:14;;;;;;;2.00;0.80;;;9.40;1.40;;;10.48;100.00;95613.97;650721;212;31546;-73
2022/05/15 05:02:56;;;;;;;2.00;1.70;;;9.60;1.40;;;10.65;100.00;95616.45;646420;212;32099;-74
2022/05/15 05:05:41;;;;;;;0.60;0.60;;;9.70;1.40;;;10.83;100.00;95618.39;646719;216;31608;-73
2022/05/15 05:08:23;;;;;;;1.20;1.10;;;9.80;1.40;;;11.03;100.00;95623.22;618562;226;32016;-73
2022/05/15 05:11:07;;;;;;;1.40;1.20;;;10.00;1.40;;;11.20;100.00;95620.24;648129;212;31499;-74
2022/05/15 05:13:49;;;;;;;1.60;1.00;;;10.30;1.40;;;11.43;100.00;95618.30;646779;216;32191;-74
2022/05/15 05:16:33;;;;;;;1.17;0.80;;;10.60;1.40;;;11.63;100.00;95618.14;648230;212;32098;-73
2022/05/15 05:19:12;;;;;;;1.35;1.25;;;10.70;1.40;;;11.78;100.00;95626.45;644849;212;31643;-75
2022/05/15 05:21:54;;;;;;;1.20;1.10;;;10.90;1.40;;;11.97;100.00;95625.63;647286;215;42176;-73
2022/05/15 05:24:39;;;;;;;1.40;1.10;;;11.00;1.40;;;12.10;100.00;95629.94;647563;216;31765;-75
2022/05/15 05:27:23;;;;;;;1.20;1.10;;;11.00;1.40;;;12.21;100.00;95633.59;645440;212;42138;-74
2022/05/15 05:30:03;;;;;;;1.40;1.20;;;11.00;1.40;;;12.32;100.00;95631.09;649430;216;42150;-74
2022/05/15 05:32:45;;;;;;;1.20;1.00;;;11.10;1.40;;;12.47;100.00;95633.41;651176;216;31559;-73
2022/05/15 05:35:50;;;;;;;1.62;1.05;;;11.30;1.40;;;12.55;100.00;95631.39;646949;216;31608;-72
2022/05/15 05:38:32;;;;;;;0.70;0.70;;;11.30;1.40;;;12.69;100.00;95638.95;645491;212;31521;-75
2022/05/15 05:41:14;;;;;;;1.15;0.80;;;11.40;1.40;;;12.88;100.00;95639.81;649371;216;42267;-74
2022/05/15 05:43:56;;;;;;;1.20;0.97;;;11.60;1.40;;;13.13;100.00;95638.63;651204;216;31562;-73
2022/05/15 05:46:41;;;;;;;1.60;1.30;;;12.00;1.40;;;13.29;100.00;95643.57;654286;216;31548;-74
2022/05/15 05:49:22;;;;;;;0.80;0.80;;;12.20;1.40;;;13.42;100.00;95641.14;633283;221;31685;-73
2022/05/15 05:52:07;;;;;;;1.40;1.13;;;12.30;1.40;;;13.61;100.00;95639.19;651818;216;32213;-75
2022/05/15 05:54:49;;;;;;;1.80;1.20;;;12.50;1.40;;;13.81;100.00;95640.22;646579;212;32508;-75
2022/05/15 05:57:31;;;;;;;1.30;1.20;;;12.90;1.40;;;13.99;100.00;95640.30;647571;212;34876;-74
2022/05/15 06:00:15;;;;;;;2.40;1.35;;;13.00;1.40;;;14.18;100.00;95643.28;643871;212;31774;-74
2022/05/15 06:05:55;;;;;;;1.62;1.45;;;13.30;1.40;;;14.53;100.00;95642.31;647822;212;36028;-74
2022/05/15 06:08:42;;;;;;;2.05;1.20;;;13.40;1.40;;;14.73;100.00;95646.19;641269;212;31716;-77
2022/05/15 06:11:22;;;;;;;2.20;2.00;;;13.60;1.40;;;14.92;100.00;95645.83;645254;216;42166;-76
2022/05/15 06:14:04;;;;;;;1.75;1.40;;;13.70;1.40;;;15.00;100.00;95649.41;621983;226;42721;-74
2022/05/15 06:16:46;;;;;;;1.50;1.40;;;13.90;1.40;;;15.22;100.00;95653.83;648687;212;31572;-77
2022/05/15 06:19:30;;;;;;;2.05;1.52;;;14.10;1.40;;;15.26;100.00;95652.45;648331;216;32145;-74
2022/05/15 06:22:17;;;;;;;2.20;1.40;;;14.30;1.40;;;15.39;100.00;95659.00;650521;216;31493;-74
2022/05/15 06:25:02;;;;;;;2.92;1.73;;;14.40;1.40;;;15.54;100.00;95661.69;618772;222;31846;-76
2022/05/15 06:27:45;;;;;;;1.70;1.60;;;14.50;1.40;;;15.68;100.00;95660.94;650195;216;31622;-75
2022/05/15 06:30:30;;;;;;;1.70;1.60;;;14.60;1.40;;;15.84;100.00;95661.33;644820;216;31518;-76
2022/05/15 06:35:51;;;;;;;2.17;1.58;;;14.70;1.40;;;16.02;100.00;95661.04;647099;212;31569;-76
2022/05/15 06:38:33;;;;;;;2.20;1.62;;;14.90;1.40;;;16.21;100.00;95664.08;645183;216;31537;-75
2022/05/15 06:41:15;;;;;;;1.77;1.67;;;15.00;1.40;;;16.27;100.00;95659.80;646840;212;31522;-76
2022/05/15 06:43:57;;;;;;;1.70;1.60;;;15.10;1.40;;;16.40;100.00;95657.53;647165;212;31566;-77
2022/05/15 06:46:38;;;;;;;1.52;1.42;;;15.20;1.40;;;16.61;100.00;95657.78;620036;222;31879;-74
2022/05/15 06:49:20;;;;;;;2.12;1.70;;;15.30;1.40;;;16.77;100.00;95653.38;648228;216;31527;-74
2022/05/15 06:52:01;;;;;;;1.42;1.33;;;15.50;1.40;;;16.92;100.00;95653.03;622808;225;31865;-76
2022/05/15 06:54:43;;;;;;;2.90;2.17;;;15.50;1.40;;;17.01;100.00;95654.31;649623;212;31624;-75
2022/05/15 06:57:32;;;;;;;1.80;1.70;;;15.50;1.40;;;17.07;100.00;95659.62;644572;216;31773;-74
2022/05/15 07:00:18;;;;;;;4.05;1.92;;;15.50;1.40;;;17.10;100.00;95658.52;649344;213;32145;-74
2022/05/15 07:03:00;;;;;;;2.50;1.87;;;15.70;1.40;;;17.29;100.00;95653.37;650640;212;31536;-75
2022/05/15 07:05:42;;;;;;;2.40;1.80;;;15.80;1.40;;;17.46;100.00;95658.03;647682;212;31525;-76
2022/05/15 07:08:27;;;;;;;1.90;1.70;;;16.00;1.40;;;17.52;100.00;95657.91;639786;216;31717;-75
2022/05/15 07:11:10;;;;;;;1.92;1.80;;;16.30;1.40;;;17.64;100.00;95656.97;644454;216;31580;-75
2022/05/15 07:13:50;;;;;;;2.50;1.30;;;16.40;1.40;;;17.71;100.00;95651.20;647711;212;31700;-75
2022/05/15 07:16:37;;;;;;;2.08;1.98;;;16.40;1.40;;;17.87;100.00;95657.14;649253;216;31598;-74
2022/05/15 07:19:19;;;;;;;1.65;1.52;;;16.50;1.40;;;18.11;100.00;95649.17;647402;216;31541;-75
2022/05/15 07:22:00;;;;;;;3.15;1.77;;;16.90;1.40;;;18.36;100.00;95648.18;648663;212;31543;-75
2022/05/15 07:24:48;;;;;;;2.40;1.62;;;17.10;1.40;;;18.46;100.00;95647.64;649460;216;31547;-74
2022/05/15 07:27:36;;;;;;;1.58;1.48;;;17.10;1.40;;;18.63;100.00;95649.62;617640;222;33444;-75
2022/05/15 07:30:23;;;;;;;2.45;1.70;;;17.40;1.40;;;18.81;100.00;95643.19;646138;212;31628;-73
2022/05/15 07:35:55;;;;;;;1.27;1.17;;;17.70;1.40;;;19.08;100.00;95637.22;635620;221;31767;-74
2022/05/15 07:38:47;;;;;;;2.85;1.58;;;17.90;1.40;;;19.34;100.00;95643.17;648024;212;32999;-76
2022/05/15 07:41:30;;;;;;;3.87;1.50;;;18.30;1.40;;;19.25;100.00;95639.47;650289;212;31542;-76
2022/05/15 07:46:46;;;;;;;1.97;1.77;;;18.40;1.40;;;19.66;100.00;95631.14;647857;216;31525;-75
2022/05/15 07:49:31;;;;;;;1.70;1.60;;;18.40;1.40;;;19.84;100.00;95634.17;646819;216;31703;-75
2022/05/15 07:52:19;;;;;;;1.95;1.33;;;18.70;1.40;;;19.94;100.00;95634.06;649667;216;31820;-73
2022/05/15 07:55:03;;;;;;;2.47;1.20;;;18.90;1.40;;;20.07;100.00;95632.38;651001;216;32086;-77
2022/05/15 07:57:46;;;;;;;2.55;1.50;;;18.90;1.40;;;20.18;100.00;95633.55;646468;212;31769;-77
2022/05/15 08:00:35;;;;;;;1.83;1.33;;;18.90;1.40;;;20.45;100.00;95631.02;646669;212;31591;-73
2022/05/15 08:03:23;;;;;;;1.70;1.60;;;19.30;1.40;;;20.75;100.00;95631.45;620449;226;31885;-76
2022/05/15 08:08:53;;;;;;;1.40;1.30;;;19.60;1.40;;;20.82;100.00;95629.67;638315;216;31718;-76
2022/05/15 08:11:37;;;;;;;1.90;1.40;;;19.60;1.40;;;21.06;100.00;95633.29;619777;225;31877;-74
2022/05/15 08:14:25;;;;;;;2.15;1.80;;;19.80;1.40;;;21.22;100.00;95629.41;647925;216;31567;-75
2022/05/15 08:17:06;;;;;;;1.52;1.42;;;20.20;1.40;;;21.32;100.00;95627.39;646296;212;32145;-75
2022/05/15 08:25:26;;;;;;;1.50;1.10;;;20.30;1.40;;;21.81;96.47;95626.41;648739;216;31994;-75
2022/05/15 08:28:08;;;;;;;2.20;1.40;;;20.60;1.40;;;21.93;86.95;95629.19;647918;216;31478;-77
2022/05/15 08:30:50;;;;;;;1.60;1.50;;;20.80;1.40;;;22.19;90.12;95631.13;619781;222;31973;-77
2022/05/15 08:35:51;;;;;;;3.40;1.43;;;21.00;1.40;;;22.17;86.71;95629.41;619568;222;31908;-74
2022/05/15 08:38:34;;;;;;;2.83;1.45;;;21.20;1.40;;;22.42;88.29;95629.16;647578;216;31544;-76
2022/05/15 08:41:53;;;;;;;1.85;1.60;;;21.20;1.40;;;22.40;82.47;95629.81;647502;216;31612;-74
2022/05/15 08:44:39;;;;;;;3.30;1.70;;;21.50;1.40;;;22.54;80.45;95632.78;645293;213;31507;-74
2022/05/15 08:47:35;;;;;;;3.30;1.60;;;21.30;1.40;;;22.46;79.30;95631.90;648644;212;31578;-74
2022/05/15 08:50:23;;;;;;;4.00;1.90;;;21.20;1.40;;;22.87;79.07;95628.92;650147;216;31584;-75
2022/05/15 08:53:08;;;;;;;3.00;1.45;;;21.70;1.40;;;22.92;74.19;95630.11;644038;212;32343;-75
2022/05/15 08:55:50;;;;;;;1.62;1.50;;;22.00;1.40;;;23.18;79.16;95629.03;646031;216;31588;-77
2022/05/15 08:58:50;;;;;;;2.87;1.53;;;22.10;1.40;;;23.50;76.87;95625.91;647616;212;31558;-76
2022/05/15 09:01:34;;;;;;;1.30;1.20;;;22.50;1.40;;;23.62;75.95;95630.38;646643;216;31674;-73
2022/05/15 09:04:21;;;;;;;1.67;1.30;;;22.80;1.40;;;24.06;76.20;95630.19;646451;216;31509;-75
2022/05/15 09:07:36;;;;;;;2.20;1.87;;;23.20;1.40;;;24.70;75.31;95634.27;645171;216;31990;-75
2022/05/15 09:10:28;;;;;;;2.20;1.75;;;23.60;1.40;;;25.01;68.26;95621.42;648463;216;31528;-74
2022/05/15 09:15:37;;;;;;;2.03;1.33;;;24.20;1.40;;;26.27;58.95;95621.95;646553;212;42245;-75
2022/05/15 09:18:24;;;;;;;2.50;1.70;;;28.30;1.40;;;27.71;55.97;95621.84;650349;216;31529;-75
2022/05/15 09:21:12;;;;;;;3.28;1.70;;;30.30;1.40;;;28.92;54.41;95616.20;650189;216;31545;-76
2022/05/15 09:23:54;;;;;;;2.97;1.70;;;30.80;1.40;;;29.18;51.03;95619.38;617730;222;31927;-75
2022/05/15 09:26:47;;;;;;;2.60;1.80;;;30.60;1.40;;;29.31;50.73;95619.67;647623;212;31743;-75
2022/05/15 09:29:33;;;;;;;2.42;1.42;;;30.60;1.40;;;29.93;46.58;95618.09;647011;216;31539;-75
2022/05/15 09:32:15;;;;;;;1.70;1.40;;;30.80;1.40;;;31.68;45.16;95615.48;649889;216;42191;-75
2022/05/15 09:35:51;;;;;;;1.77;1.50;;;30.80;1.40;;;31.17;45.60;95616.70;650604;212;42779;-76
2022/05/15 09:38:33;;;;;;;1.87;1.50;;;30.90;1.40;;;32.11;49.45;95609.44;646568;212;31544;-76
2022/05/15 09:44:27;;;;;;;1.70;1.50;;;31.80;1.40;;;31.64;41.59;95612.83;647778;216;31653;-73
2022/05/15 09:49:54;;;;;;;1.48;1.37;;;31.70;1.40;;;34.45;40.17;95607.11;618461;226;32101;-73
2022/05/15 09:52:42;;;;;;;1.30;1.20;;;31.80;1.40;;;34.53;44.81;95612.31;651355;212;31586;-76
2022/05/15 09:55:26;;;;;;;2.22;1.35;;;32.70;1.40;;;35.63;39.41;95608.36;647779;216;31943;-73
2022/05/15 10:00:45;;;;;;;2.10;1.30;;;31.80;1.40;;;33.92;38.57;95607.84;622287;226;32461;-76
2022/05/15 10:03:28;;;;;;;1.30;1.20;;;31.10;1.40;;;35.21;38.08;95601.69;646088;212;31514;-72
2022/05/15 10:09:08;;;;;;;1.50;1.10;;;32.50;1.40;;;33.01;33.31;95602.10;648413;216;31961;-76
2022/05/15 10:11:56;;;;;;;1.73;1.30;;;31.30;1.40;;;33.49;32.08;95597.34;644043;216;31545;-73
2022/05/15 10:17:23;;;;;;;1.58;1.17;;;31.80;1.40;;;35.95;32.24;95584.91;647374;216;33216;-76
2022/05/15 10:20:18;;;;;;;1.20;1.10;;;31.70;1.40;;;34.82;32.88;95588.41;644260;212;34578;-73
2022/05/15 10:23:06;;;;;;;1.90;1.30;;;31.40;1.40;;;36.52;33.57;95583.89;650845;216;31676;-72
2022/05/15 10:26:03;;;;;;;2.40;1.33;;;32.90;1.40;;;35.70;32.40;95582.64;646526;216;32159;-76
2022/05/15 10:29:10;;;;;;;1.40;1.30;;;31.40;1.40;;;33.92;33.97;95587.95;647415;216;31564;-75
2022/05/15 10:31:53;;;;;;;1.87;0.90;;;31.10;1.40;;;34.67;32.13;95582.69;647565;216;42178;-72
2022/05/15 10:36:02;;;;;;;1.20;1.10;;;31.30;1.40;;;34.87;32.69;95576.09;647021;212;31597;-77
2022/05/15 10:39:15;;;;;;;1.23;1.00;;;31.00;1.40;;;34.48;31.96;95576.34;645770;216;31885;-72
2022/05/15 10:42:00;;;;;;;1.67;1.13;;;31.20;1.40;;;33.91;34.30;95577.56;643872;216;31599;-73
2022/05/15 10:47:37;;;;;;;2.35;1.20;;;31.50;1.40;;;35.91;32.59;95572.02;647601;216;31642;-73
2022/05/15 10:50:31;;;;;;;1.20;0.90;;;31.40;1.40;;;34.56;31.55;95566.97;652293;216;31942;-76
2022/05/15 10:59:55;;;;;;;1.30;1.10;;;31.90;1.40;;;37.96;31.23;95551.19;644884;216;31697;-73
2022/05/15 11:03:23;;;;;;;1.40;1.20;;;32.20;1.40;;;37.28;29.24;95548.41;619034;222;31841;-77
2022/05/15 11:06:25;;;;;;;1.70;1.20;;;30.90;1.40;;;35.50;33.64;95554.10;650434;216;31616;-73
2022/05/15 11:09:19;;;;;;;2.10;1.00;;;31.30;1.40;;;37.58;30.96;95542.80;612945;226;32597;-76
2022/05/15 11:14:51;;;;;;;1.10;1.00;;;32.20;1.40;;;34.07;32.76;95543.53;647804;216;31896;-72
2022/05/15 11:17:50;;;;;;;1.53;1.00;;;30.60;1.40;;;37.26;30.79;95535.80;645317;216;31475;-76
2022/05/15 11:20:41;;;;;;;1.10;1.00;;;31.40;1.40;;;35.16;32.08;95540.20;645441;212;33160;-73
2022/05/15 11:26:13;;;;;;;1.75;0.90;;;31.50;1.40;;;36.36;28.73;95537.18;647194;216;31519;-72
2022/05/15 11:28:56;;;;;;;1.30;1.20;;;31.10;1.40;;;37.14;27.40;95524.98;643592;216;32271;-73
2022/05/15 11:31:37;;;;;;;1.20;1.10;;;31.40;1.40;;;38.88;27.95;95519.78;647738;216;32084;-73
2022/05/15 11:36:12;;;;;;;1.10;1.00;;;33.00;1.40;;;38.84;27.95;95518.36;644376;216;31499;-75
2022/05/15 11:39:27;;;;;;;1.20;1.10;;;32.80;1.40;;;40.13;26.26;95512.25;646647;216;31537;-76
2022/05/15 11:42:17;;;;;;;0.90;0.80;;;32.50;1.40;;;37.29;30.32;95512.84;649707;216;31619;-75
2022/05/15 11:45:30;;;;;;;1.35;1.12;;;31.30;1.40;;;37.79;26.36;95512.70;651273;212;31568;-76
2022/05/15 11:48:20;;;;;;;1.10;1.00;;;30.70;1.40;;;38.55;27.51;95507.30;645483;216;31508;-74
2022/05/15 11:51:04;;;;;;;0.90;0.90;;;31.30;1.40;;;38.75;28.21;95503.11;649893;216;31513;-73
2022/05/15 11:54:03;;;;;;;1.53;0.90;;;31.30;1.40;;;36.64;30.06;95508.75;648289;216;31559;-76
2022/05/15 11:57:00;;;;;;;1.10;1.00;;;30.80;1.40;;;38.03;29.89;95495.38;652262;216;32067;-76
2022/05/15 11:59:51;;;;;;;1.20;1.10;;;30.40;1.40;;;34.56;29.84;95506.70;648440;216;32155;-73
2022/05/15 12:05:24;;;;;;;1.30;1.12;;;29.80;1.40;;;37.89;27.80;95498.05;648958;216;31568;-77
2022/05/15 12:08:33;;;;;;;2.50;1.30;;;30.80;1.40;;;39.10;26.58;95487.91;637222;217;32231;-77
2022/05/15 12:13:55;;;;;;;1.70;1.30;;;31.20;1.40;;;37.50;28.57;95489.69;648071;216;31844;-73
2022/05/15 12:17:00;;;;;;;1.12;1.02;;;30.10;1.40;;;38.50;26.50;95479.42;647489;216;31728;-77
2022/05/15 12:19:47;;;;;;;1.25;1.15;;;31.00;1.40;;;37.75;28.06;95488.03;646614;212;31659;-72
2022/05/15 12:22:37;;;;;;;1.10;1.02;;;30.60;1.40;;;38.09;29.62;95483.70;645923;216;32094;-77
2022/05/15 12:25:23;;;;;;;1.77;1.30;;;31.00;1.40;;;38.36;28.37;95479.91;649532;216;31525;-76
2022/05/15 12:31:07;;;;;;;2.92;1.60;;;30.30;1.40;;;36.73;30.71;95483.53;650896;216;31499;-73
2022/05/15 12:35:51;;;;;;;1.48;1.20;;;30.40;1.40;;;39.00;28.72;95470.08;648795;212;31720;-73
2022/05/15 12:40:14;;;;;;;2.40;1.35;;;30.50;1.40;;;38.78;29.26;95468.50;647239;216;42165;-73
2022/05/15 12:43:01;;;;;;;2.42;1.50;;;31.10;1.40;;;36.51;29.57;95473.29;645551;216;31569;-76
2022/05/15 12:45:49;;;;;;;1.77;1.40;;;30.20;1.40;;;36.07;30.96;95468.17;646986;216;44956;-74
2022/05/15 12:48:31;;;;;;;1.80;1.40;;;30.00;1.40;;;37.92;29.40;95459.97;651138;216;31586;-73
2022/05/15 12:51:33;;;;;;;1.60;1.50;;;30.50;1.40;;;39.95;27.59;95455.98;645575;212;31577;-77
2022/05/15 12:54:21;;;;;;;1.20;1.08;;;31.00;1.40;;;40.07;28.06;95453.84;648204;216;31500;-76
2022/05/15 12:57:04;;;;;;;1.15;1.05;;;31.30;1.40;;;37.83;28.82;95453.27;649479;216;31529;-76
2022/05/15 12:59:49;;;;;;;2.20;1.20;;;30.00;1.40;;;35.64;32.79;95463.06;647275;216;31520;-77
2022/05/15 13:02:32;;;;;;;2.17;1.50;;;29.60;1.40;;;37.09;29.94;95454.56;645336;216;31626;-77
2022/05/15 13:05:20;;;;;;;4.40;1.50;;;29.60;1.40;;;35.11;32.36;95464.17;649233;216;32082;-75
2022/05/15 13:08:07;;;;;;;1.37;1.27;;;29.60;1.40;;;35.47;33.58;95461.53;648365;216;31961;-73
2022/05/15 13:10:56;;;;;;;1.45;1.30;;;29.70;1.40;;;35.31;30.78;95456.58;650147;212;32232;-77